Latest Weather Observations for Broome Port

IDW60801

Issued at 4:05 pm WST Monday 28 July 2014 (issued every 30 minutes, with the page automatically refreshed every 10 minutes)

About weather observations | Map of weather stations | Latest weather observations for WA | Other Formats
Station Details ID: 003102 Name: BROOME NTC AWS Lat: -18.00 Lon: 122.22 Height: 0.0 m
Data from the previous 72 hours. | See also: Recent months for locations in Western Australia
Date/Time
WST
Temp
°C
App
Temp
°C
Dew
Point
Rel
Hum
%
Delta-T
°C
Wind Press
QNH
hPa
Press
MSL
hPa
Rain
since 9 am
mm
Dir
 
Spd
km/h
Gust
km/h
Spd
kts
Gust
kts
28/04:00pm 24.6 - - - - WNW 22 26 12 14 1012.9 1012.9 -
28/03:30pm 24.1 - - - - WNW 24 28 13 15 1012.7 - -
28/03:00pm 24.7 - - - - WNW 20 28 11 15 1012.8 1012.8 -
28/02:30pm 25.4 - - - - W 19 22 10 12 1012.5 - -
28/02:00pm 25.5 - - - - WSW 20 28 11 15 1012.9 1012.9 -
28/01:30pm 27.5 - - - - WSW 19 22 10 12 1013.2 - -
28/01:00pm 27.6 - - - - SSW 11 13 6 7 1013.7 1013.7 -
28/12:30pm 27.0 - - - - SW 11 13 6 7 1014.3 - -
28/12:00pm 25.6 - - - - SSW 11 15 6 8 1014.8 1014.8 -
28/11:30am 26.5 - - - - S 11 15 6 8 1015.5 - -
28/11:00am 25.1 - - - - SSE 7 9 4 5 1016.1 1016.1 -
28/10:30am 24.1 - - - - SE 7 7 4 4 1016.5 - -
28/10:00am 22.1 - - - - E 9 9 5 5 1016.9 1016.9 -
28/09:30am 21.0 - - - - E 7 13 4 7 1017.1 - -
28/09:00am 20.8 - - - - SE 11 13 6 7 1017.1 1017.1 -
28/08:30am 20.6 - - - - SE 11 13 6 7 1016.9 - -
28/08:00am 20.5 - - - - SE 17 22 9 12 1016.6 1016.6 -
28/07:30am 20.4 - - - - SSE 17 20 9 11 1016.5 - -
28/07:00am 20.6 - - - - SSE 22 26 12 14 1016.4 1016.4 -
28/06:30am 20.9 - - - - SSE 9 17 5 9 1016.2 - -
28/06:00am 20.0 - - - - SE 13 19 7 10 1016.1 1016.1 -
28/05:30am 21.2 - - - - SE 13 20 7 11 1015.7 - -
28/05:00am 21.2 - - - - SSE 13 17 7 9 1015.3 1015.3 -
28/04:30am 21.0 - - - - SSE 9 13 5 7 1015.1 - -
28/04:00am 21.3 - - - - S 7 11 4 6 1014.9 1014.9 -
28/03:30am 21.3 - - - - S 11 15 6 8 1015.1 - -
28/03:00am 21.3 - - - - SW 13 17 7 9 1014.8 1014.8 -
28/02:30am 21.9 - - - - SSW 13 17 7 9 1014.8 - -
28/02:00am 22.2 - - - - SSW 19 22 10 12 1014.9 1014.9 -
28/01:30am 22.7 - - - - SSW 20 24 11 13 1015.1 - -
28/01:00am 22.2 - - - - S 13 17 7 9 1015.7 1015.7 -
28/12:30am 22.4 - - - - S 22 24 12 13 1016.1 - -
28/12:00am 22.5 - - - - SSW 19 20 10 11 1016.2 1016.2 -
 
Date/Time
WST
Temp
°C
App
Temp
°C
Dew
Point
Rel
Hum
%
Delta-T
°C
Wind Press
QNH
hPa
Press
MSL
hPa
Rain
since 9 am
mm
Dir
 
Spd
km/h
Gust
km/h
Spd
kts
Gust
kts
27/11:30pm 23.1 - - - - SW 20 24 11 13 1016.3 - -
27/11:00pm 22.9 - - - - SW 19 20 10 11 1016.5 1016.5 -
27/10:30pm 23.4 - - - - SW 17 20 9 11 1016.5 - -
27/10:00pm 22.3 - - - - S 4 7 2 4 1016.6 1016.6 -
27/09:30pm 23.4 - - - - SW 11 17 6 9 1016.6 - -
27/09:00pm 21.8 - - - - S 4 9 2 5 1016.6 1016.6 -
27/08:30pm 22.6 - - - - SW 17 20 9 11 1016.4 - -
27/08:00pm 22.5 - - - - SW 17 24 9 13 1016.2 1016.2 -
27/07:30pm 23.2 - - - - WSW 20 24 11 13 1016.0 - -
27/07:00pm 23.8 - - - - W 20 26 11 14 1015.8 1015.8 -
27/06:30pm 23.7 - - - - W 19 22 10 12 1015.6 - -
27/06:00pm 22.9 - - - - W 9 17 5 9 1015.4 1015.4 -
27/05:30pm 22.9 - - - - WNW 11 15 6 8 1015.4 - -
27/05:00pm 23.6 - - - - WNW 17 20 9 11 1015.0 1015.0 -
27/04:30pm 24.6 - - - - WNW 20 24 11 13 1014.8 - -
27/04:00pm 24.3 - - - - WNW 17 20 9 11 1014.5 1014.5 -
27/03:30pm 26.4 - - - - W 9 19 5 10 1014.2 - -
27/03:00pm 24.8 - - - - NW 20 26 11 14 1014.2 1014.2 -
27/02:30pm 24.9 - - - - SW 17 20 9 11 1014.2 - -
27/02:00pm 28.6 - - - - SSW 9 13 5 7 1014.4 1014.4 -
27/01:30pm 27.5 - - - - SSW 11 17 6 9 1014.6 - -
27/01:00pm 28.0 - - - - S 9 9 5 5 1015.1 1015.1 -
27/12:30pm 28.2 - - - - SSE 11 13 6 7 1015.6 - -
27/12:00pm 26.5 - - - - SSE 11 13 6 7 1016.1 1016.1 -
27/11:30am 26.2 - - - - ESE 13 17 7 9 1016.7 - -
27/11:00am 24.0 - - - - ESE 15 17 8 9 1017.2 1017.2 -
27/10:30am 22.4 - - - - ESE 11 17 6 9 1017.7 - -
27/10:00am 20.4 - - - - ESE 11 13 6 7 1018.1 1018.1 -
27/09:30am 19.6 - - - - ESE 9 11 5 6 1018.3 - -
27/09:00am 19.4 - - - - SE 9 13 5 7 1018.5 1018.5 -
27/08:30am 19.0 - - - - SE 13 15 7 8 1018.4 - -
27/08:00am 19.4 - - - - SE 15 19 8 10 1018.3 1018.3 -
27/07:30am 19.5 - - - - SE 11 17 6 9 1017.8 - -
27/07:00am 19.3 - - - - SE 11 15 6 8 1017.5 1017.5 -
27/06:30am 19.8 - - - - ESE 11 13 6 7 1017.5 - -
27/06:00am 19.4 - - - - SSE 9 11 5 6 1017.3 1017.3 -
27/05:30am 19.8 - - - - SE 13 19 7 10 1017.3 - -
27/05:00am 19.7 - - - - S 9 15 5 8 1016.6 1016.6 -
27/04:30am 19.6 - - - - SSW 15 17 8 9 1016.6 - -
27/04:00am 19.6 - - - - S 7 9 4 5 1016.8 1016.8 -
27/03:30am 19.8 - - - - S 7 15 4 8 1016.8 - -
27/03:00am 20.1 - - - - S 11 13 6 7 1017.0 1017.0 -
27/02:30am 20.7 - - - - S 15 19 8 10 1017.0 - -
27/02:00am 20.9 - - - - SW 17 20 9 11 1017.1 1017.1 -
27/01:30am 21.1 - - - - SSW 22 24 12 13 1017.0 - -
27/01:00am 21.5 - - - - SSW 26 30 14 16 1017.2 1017.2 -
27/12:30am 21.7 - - - - SW 24 26 13 14 1017.3 - -
27/12:00am 21.9 - - - - SW 24 28 13 15 1017.4 1017.4 -
 
Date/Time
WST
Temp
°C
App
Temp
°C
Dew
Point
Rel
Hum
%
Delta-T
°C
Wind Press
QNH
hPa
Press
MSL
hPa
Rain
since 9 am
mm
Dir
 
Spd
km/h
Gust
km/h
Spd
kts
Gust
kts
26/11:30pm 21.8 - - - - SW 19 22 10 12 1017.6 - -
26/11:00pm 21.8 - - - - SSW 15 19 8 10 1017.9 1017.9 -
26/10:30pm 22.2 - - - - SW 20 24 11 13 1017.7 - -
26/10:00pm 22.2 - - - - SW 15 20 8 11 1017.8 1017.8 -
26/09:30pm 22.5 - - - - SW 20 24 11 13 1017.7 - -
26/09:00pm 22.4 - - - - WSW 13 17 7 9 1017.8 1017.8 -
26/08:30pm 22.8 - - - - WSW 11 15 6 8 1017.9 - -
26/08:00pm 22.5 - - - - NW 9 13 5 7 1017.9 1017.9 -
26/07:30pm 22.7 - - - - W 13 20 7 11 1017.6 - -
26/07:00pm 22.2 - - - - NW 13 17 7 9 1017.3 1017.3 -
26/06:30pm 22.7 - - - - WNW 17 24 9 13 1016.8 - -
26/06:00pm 22.5 - - - - WSW 24 33 13 18 1016.2 1016.2 -
26/05:30pm 22.3 - - - - WSW 24 32 13 17 1015.8 - -
26/05:00pm 22.2 - - - - WSW 26 30 14 16 1015.7 1015.7 -
26/04:30pm 22.5 - - - - WSW 28 33 15 18 1015.5 - -
26/04:00pm 22.7 - - - - WSW 28 33 15 18 1015.5 1015.5 -
26/03:30pm 22.9 - - - - WSW 28 33 15 18 1015.4 - -
26/03:00pm 23.9 - - - - WSW 22 30 12 16 1015.4 1015.4 -
26/02:30pm 25.9 - - - - WSW 17 20 9 11 1015.4 - -
26/02:00pm 26.0 - - - - WSW 15 19 8 10 1015.5 1015.5 -
26/01:30pm 26.8 - - - - WSW 13 17 7 9 1015.8 - -
26/01:00pm 26.2 - - - - SW 11 15 6 8 1016.3 1016.3 -
26/12:30pm 26.6 - - - - S 7 9 4 5 1016.7 - -
26/12:00pm 25.9 - - - - SSE 9 11 5 6 1017.1 1017.1 -
26/11:30am 26.3 - - - - ESE 13 17 7 9 1017.6 - -
26/11:00am 24.7 - - - - ESE 13 17 7 9 1018.1 1018.1 -
26/10:30am 22.3 - - - - ESE 9 13 5 7 1018.5 - -
26/10:00am 20.2 - - - - SE 7 11 4 6 1018.9 1018.9 -
26/09:30am 19.1 - - - - ESE 9 11 5 6 1019.1 - -
26/09:00am 18.5 - - - - ESE 11 13 6 7 1019.2 1019.2 -
26/08:30am 18.0 - - - - ESE 11 13 6 7 1018.9 - -
26/08:00am 17.9 - - - - ESE 13 17 7 9 1018.8 1018.8 -
26/07:30am 18.1 - - - - ESE 19 20 10 11 1018.4 - -
26/07:00am 17.7 - - - - ESE 20 24 11 13 1018.1 1018.1 -
26/06:30am 17.8 - - - - ESE 22 26 12 14 1017.8 - -
26/06:00am 18.1 - - - - ESE 22 28 12 15 1017.6 1017.6 -
26/05:30am 18.2 - - - - ESE 26 32 14 17 1017.4 - -
26/05:00am 18.5 - - - - ESE 26 33 14 18 1017.2 1017.2 -
26/04:30am 18.3 - - - - ESE 22 26 12 14 1017.1 - -
26/04:00am 18.5 - - - - ESE 17 20 9 11 1017.2 1017.2 -
26/03:30am 18.7 - - - - ESE 17 20 9 11 1017.1 - -
26/03:00am 18.8 - - - - ESE 15 22 8 12 1017.0 1017.0 -
26/02:30am 19.5 - - - - ESE 19 24 10 13 1016.9 - -
26/02:00am 19.9 - - - - SE 17 19 9 10 1016.9 1016.9 -
26/01:30am 20.2 - - - - SE 17 20 9 11 1016.9 - -
26/01:00am 20.5 - - - - SE 15 19 8 10 1016.9 1016.9 -
26/12:30am 19.9 - - - - ESE 13 17 7 9 1017.0 - -
26/12:00am 20.1 - - - - ESE 15 19 8 10 1017.0 1017.0 -
 
Date/Time
WST
Temp
°C
App
Temp
°C
Dew
Point
Rel
Hum
%
Delta-T
°C
Wind Press
QNH
hPa
Press
MSL
hPa
Rain
since 9 am
mm
Dir
 
Spd
km/h
Gust
km/h
Spd
kts
Gust
kts
25/11:30pm 21.0 - - - - SE 19 22 10 12 1017.0 - -
25/11:00pm 21.2 - - - - ESE 15 19 8 10 1017.2 1017.2 -
25/10:30pm 21.6 - - - - ESE 9 13 5 7 1017.3 - -
25/10:00pm 21.6 - - - - SSE 7 11 4 6 1017.5 1017.5 -
25/09:30pm 22.1 - - - - S 13 17 7 9 1017.6 - -
25/09:00pm 21.4 - - - - SSW 15 17 8 9 1017.7 1017.7 -
25/08:30pm 21.4 - - - - SSW 17 20 9 11 1017.6 - -
25/08:00pm 21.7 - - - - SW 20 24 11 13 1017.4 1017.4 -
25/07:30pm 21.7 - - - - SW 22 26 12 14 1017.1 - -
25/07:00pm 21.5 - - - - SW 20 24 11 13 1016.6 1016.6 -
25/06:30pm 21.6 - - - - SW 22 26 12 14 1016.4 - -
25/06:00pm 22.1 - - - - SW 22 24 12 13 1016.1 1016.1 -
25/05:30pm 22.8 - - - - SW 20 24 11 13 1015.9 - -
25/05:00pm 24.5 - - - - SW 20 22 11 12 1015.7 1015.7 -
25/04:30pm 25.4 - - - - SW 17 17 9 9 1015.5 - -

Other Formats:

Comma delimited format used in spreadsheet applications
http://www.bom.gov.au/fwo/IDW60801/IDW60801.95202.axf

JavaScript Object Notation format (JSON) in row-major order
http://www.bom.gov.au/fwo/IDW60801/IDW60801.95202.json